Time;durP1;ratioP1;P1;durP2;ratioP2;P2;SDS_P1;SDS_P2;PMS_P1;PMS_P2;Temp;Humidity;BMP_temperature;BMP_pressure;BME280_temperature;BME280_humidity;BME280_pressure;Samples;Min_cycle;Max_cycle;Signal;HPM_P1;HPM_P2
2023/05/10 00:02:09;;;;;;;5.47;2.25;;;11.70;99.90;;;;;;5049298;28;20044;-67
2023/05/10 00:04:35;;;;;;;3.78;2.33;;;11.70;99.90;;;;;;5048373;28;20045;-67
2023/05/10 00:07:02;;;;;;;5.63;2.08;;;11.70;99.90;;;;;;5048788;28;20373;-65
2023/05/10 00:09:29;;;;;;;7.75;2.33;;;11.70;99.90;;;;;;5031731;28;20087;-66
2023/05/10 00:11:58;;;;;;;9.35;2.97;;;11.70;99.90;;;;;;5049418;28;20051;-67
2023/05/10 00:14:25;;;;;;;4.82;2.05;;;11.70;99.90;;;;;;5049148;28;20059;-67
2023/05/10 00:16:51;;;;;;;3.75;2.25;;;11.70;99.90;;;;;;5049321;28;20080;-65
2023/05/10 00:19:18;;;;;;;8.35;3.28;;;11.70;99.90;;;;;;5047808;28;20060;-67
2023/05/10 00:21:45;;;;;;;5.03;1.95;;;11.70;99.90;;;;;;5046301;28;20045;-66
2023/05/10 00:24:12;;;;;;;4.07;2.13;;;11.70;99.90;;;;;;5048268;28;20581;-67
2023/05/10 00:26:38;;;;;;;5.13;2.40;;;11.70;99.90;;;;;;5049590;28;20068;-68
2023/05/10 00:29:05;;;;;;;6.13;2.55;;;11.70;99.90;;;;;;5048588;28;20514;-67
2023/05/10 00:31:32;;;;;;;2.60;2.13;;;11.70;99.90;;;;;;5049009;28;20049;-67
2023/05/10 00:33:59;;;;;;;5.03;2.72;;;11.70;99.90;;;;;;5048635;28;20053;-66
2023/05/10 00:36:25;;;;;;;5.57;2.80;;;11.70;99.90;;;;;;5045265;28;20083;-65
2023/05/10 00:38:52;;;;;;;3.85;2.25;;;11.70;99.90;;;;;;5049275;28;20488;-67
2023/05/10 00:41:20;;;;;;;5.53;2.53;;;11.70;99.90;;;;;;5049011;28;20048;-66
2023/05/10 00:43:48;;;;;;;4.97;2.75;;;11.80;99.90;;;;;;5049276;28;20087;-66
2023/05/10 00:46:15;;;;;;;8.82;2.85;;;11.70;99.90;;;;;;5048542;28;20140;-66
2023/05/10 00:48:42;;;;;;;3.63;2.50;;;11.80;99.90;;;;;;5049090;28;20056;-66
2023/05/10 00:51:09;;;;;;;7.70;3.15;;;11.80;99.90;;;;;;5048818;28;20045;-66
2023/05/10 00:53:36;;;;;;;6.28;2.90;;;11.80;99.90;;;;;;5048282;28;20048;-66
2023/05/10 00:56:03;;;;;;;14.55;3.30;;;11.90;99.90;;;;;;5049324;28;20402;-66
2023/05/10 00:58:30;;;;;;;5.10;3.28;;;11.90;99.90;;;;;;5049738;28;20041;-66
2023/05/10 01:00:57;;;;;;;6.82;3.50;;;11.80;99.90;;;;;;5049247;28;20048;-65
2023/05/10 01:03:25;;;;;;;6.47;3.88;;;11.80;99.90;;;;;;5047383;28;20130;-66
2023/05/10 01:05:52;;;;;;;5.68;3.83;;;11.70;99.90;;;;;;4697235;28;10000064;-65
2023/05/10 01:08:18;;;;;;;5.35;3.03;;;11.80;99.90;;;;;;5047761;28;20048;-67
2023/05/10 01:10:45;;;;;;;8.63;3.42;;;11.80;99.90;;;;;;5030268;28;20045;-66
2023/05/10 01:13:12;;;;;;;13.73;4.05;;;11.80;99.90;;;;;;5048405;28;20063;-67
2023/05/10 01:15:39;;;;;;;8.45;4.13;;;11.80;99.90;;;;;;5046816;28;20385;-66
2023/05/10 01:18:06;;;;;;;9.80;4.35;;;11.80;99.90;;;;;;5047224;28;20045;-67
2023/05/10 01:20:37;;;;;;;9.18;4.07;;;11.80;99.90;;;;;;5046844;28;20139;-66
2023/05/10 01:23:17;;;;;;;7.95;4.13;;;11.80;99.90;;;;;;5030239;28;20614;-66
2023/05/10 01:26:15;;;;;;;7.13;3.95;;;11.90;99.90;;;;;;5028171;28;20131;-66
2023/05/10 01:28:57;;;;;;;10.27;4.00;;;11.80;99.90;;;;;;5038300;28;20128;-67
2023/05/10 01:31:46;;;;;;;5.70;3.67;;;11.90;99.90;;;;;;5047752;28;20057;-67
2023/05/10 01:34:16;;;;;;;6.85;3.17;;;11.90;99.90;;;;;;5047707;28;20083;-66
2023/05/10 01:36:50;;;;;;;9.60;3.53;;;11.80;99.90;;;;;;5030301;28;20686;-65
2023/05/10 01:39:26;;;;;;;7.82;3.42;;;11.90;99.90;;;;;;5048138;28;20056;-65
2023/05/10 01:41:55;;;;;;;8.18;4.20;;;11.90;99.90;;;;;;5046049;28;20049;-66
2023/05/10 01:44:35;;;;;;;9.25;4.15;;;11.90;99.90;;;;;;5046595;28;20059;-65
2023/05/10 01:47:25;;;;;;;8.50;4.28;;;11.90;99.90;;;;;;5045825;28;20123;-65
2023/05/10 01:49:55;;;;;;;5.40;3.22;;;11.90;99.90;;;;;;5048258;28;20069;-65
2023/05/10 01:52:32;;;;;;;7.35;4.00;;;11.80;99.90;;;;;;5050629;28;20060;-65
2023/05/10 01:55:04;;;;;;;6.35;3.22;;;11.90;99.90;;;;;;5049510;28;20053;-66
2023/05/10 01:57:35;;;;;;;5.50;3.83;;;11.90;99.90;;;;;;5043293;28;20111;-66
2023/05/10 02:00:04;;;;;;;8.32;3.78;;;11.90;99.90;;;;;;5046851;28;20118;-66
2023/05/10 02:02:33;;;;;;;9.82;3.90;;;11.90;99.90;;;;;;5029828;28;20049;-66
2023/05/10 02:05:00;;;;;;;11.00;4.53;;;11.90;99.90;;;;;;5046388;28;20549;-66
2023/05/10 02:07:27;;;;;;;8.73;3.60;;;11.90;99.90;;;;;;5046275;28;20069;-68
2023/05/10 02:09:54;;;;;;;6.10;3.80;;;11.90;99.90;;;;;;5030151;28;20135;-66
2023/05/10 02:12:21;;;;;;;10.32;3.75;;;11.90;99.90;;;;;;5045749;28;20433;-66
2023/05/10 02:14:48;;;;;;;8.57;4.15;;;11.80;99.90;;;;;;5046418;28;20456;-66
2023/05/10 02:17:14;;;;;;;7.43;3.50;;;11.90;99.90;;;;;;5047335;28;20040;-66
2023/05/10 02:19:41;;;;;;;7.93;3.97;;;11.80;99.90;;;;;;5029860;28;20480;-66
2023/05/10 02:22:08;;;;;;;10.38;3.38;;;11.80;99.90;;;;;;5047352;28;20438;-66
2023/05/10 02:24:35;;;;;;;6.43;4.05;;;11.80;99.90;;;;;;5029532;28;20110;-66
2023/05/10 02:27:03;;;;;;;6.30;4.00;;;11.80;99.90;;;;;;5029155;28;20041;-67
2023/05/10 02:29:30;;;;;;;14.70;5.38;;;11.80;99.90;;;;;;5050033;28;20049;-66
2023/05/10 02:31:56;;;;;;;9.90;3.92;;;11.90;99.90;;;;;;5049737;28;20049;-66
2023/05/10 02:34:25;;;;;;;10.23;5.18;;;11.80;99.90;;;;;;5049551;28;20052;-66
2023/05/10 02:36:52;;;;;;;11.75;4.47;;;11.80;99.90;;;;;;5049981;28;20162;-66
2023/05/10 02:39:22;;;;;;;6.65;4.10;;;11.80;99.90;;;;;;5049755;28;20140;-67
2023/05/10 02:41:49;;;;;;;13.10;6.70;;;11.80;99.90;;;;;;5049933;28;20562;-66
2023/05/10 02:44:18;;;;;;;7.18;4.20;;;11.80;99.90;;;;;;5033178;28;20119;-66
2023/05/10 02:46:45;;;;;;;7.22;3.67;;;11.70;99.90;;;;;;5051809;28;20144;-67
2023/05/10 02:49:11;;;;;;;6.40;3.90;;;11.70;99.90;;;;;;5051003;28;20045;-66
2023/05/10 02:51:42;;;;;;;10.50;3.47;;;11.70;99.90;;;;;;5050999;28;20075;-66
2023/05/10 02:54:15;;;;;;;7.43;3.90;;;11.70;99.90;;;;;;5033315;28;20043;-66
2023/05/10 02:56:44;;;;;;;13.60;4.10;;;11.70;99.90;;;;;;5052087;28;20049;-67
2023/05/10 02:59:11;;;;;;;7.82;4.10;;;11.70;99.90;;;;;;5049039;28;20484;-66
2023/05/10 03:01:38;;;;;;;5.50;4.00;;;11.70;99.90;;;;;;5033450;28;20139;-66
2023/05/10 03:04:06;;;;;;;7.80;4.80;;;11.70;99.90;;;;;;5050406;28;20064;-66
2023/05/10 03:06:32;;;;;;;8.95;4.43;;;11.70;99.90;;;;;;5049426;28;20049;-66
2023/05/10 03:08:59;;;;;;;12.63;4.68;;;11.60;99.90;;;;;;5050569;28;20099;-66
2023/05/10 03:11:42;;;;;;;9.52;4.40;;;11.60;99.90;;;;;;5043091;28;20454;-66
2023/05/10 03:14:23;;;;;;;10.02;3.88;;;11.60;99.90;;;;;;5016952;28;20040;-66
2023/05/10 03:17:02;;;;;;;11.40;4.25;;;11.60;99.90;;;;;;5047526;28;20530;-66
2023/05/10 03:19:45;;;;;;;8.07;4.07;;;11.60;99.90;;;;;;5050397;28;20055;-66
2023/05/10 03:22:12;;;;;;;8.68;4.90;;;11.60;99.90;;;;;;5031089;28;20037;-66
2023/05/10 03:24:39;;;;;;;12.10;4.00;;;11.60;99.90;;;;;;5016014;28;20052;-66
2023/05/10 03:27:06;;;;;;;7.78;3.63;;;11.60;99.90;;;;;;5029060;28;20456;-67
2023/05/10 03:29:33;;;;;;;9.48;4.30;;;11.50;99.90;;;;;;5049994;28;20053;-66
2023/05/10 03:32:00;;;;;;;8.70;4.85;;;11.50;99.90;;;;;;5032247;28;20045;-66
2023/05/10 03:34:26;;;;;;;8.40;3.85;;;11.60;99.90;;;;;;5050095;28;20061;-66
2023/05/10 03:36:53;;;;;;;11.13;4.72;;;11.50;99.90;;;;;;5050255;28;20124;-67
2023/05/10 03:39:21;;;;;;;9.57;4.63;;;11.60;99.90;;;;;;5049757;28;20049;-66
2023/05/10 03:41:50;;;;;;;10.60;4.50;;;11.50;99.90;;;;;;5049124;28;20087;-66
2023/05/10 03:44:17;;;;;;;10.38;5.18;;;11.60;99.90;;;;;;5049574;28;20043;-66
2023/05/10 03:46:44;;;;;;;10.80;4.97;;;11.60;99.90;;;;;;5048944;28;20400;-66
2023/05/10 03:49:11;;;;;;;9.60;5.50;;;11.60;99.90;;;;;;5049849;28;20121;-66
2023/05/10 03:51:38;;;;;;;7.32;4.47;;;11.50;99.90;;;;;;5049253;28;20057;-67
2023/05/10 03:54:05;;;;;;;10.32;5.38;;;11.50;99.90;;;;;;5049554;28;20049;-66
2023/05/10 03:56:32;;;;;;;8.57;4.25;;;11.50;99.90;;;;;;5048534;28;20052;-66
2023/05/10 03:58:59;;;;;;;7.40;5.28;;;11.50;99.90;;;;;;5048585;28;20133;-66
2023/05/10 04:01:25;;;;;;;9.15;5.03;;;11.50;99.90;;;;;;5047509;28;20143;-66
2023/05/10 04:03:52;;;;;;;13.13;4.68;;;11.50;99.90;;;;;;5049651;28;20488;-66
2023/05/10 04:06:19;;;;;;;10.77;5.78;;;11.50;99.90;;;;;;5047237;28;20508;-67
2023/05/10 04:08:46;;;;;;;7.55;4.93;;;11.50;99.90;;;;;;5049835;28;20056;-66
2023/05/10 04:11:13;;;;;;;10.13;5.28;;;11.50;99.90;;;;;;5049047;28;20693;-66
2023/05/10 04:13:41;;;;;;;10.52;5.32;;;11.50;99.90;;;;;;5050137;28;20455;-66
2023/05/10 04:16:07;;;;;;;9.93;5.07;;;11.50;99.90;;;;;;5049754;28;20127;-66
2023/05/10 04:18:34;;;;;;;9.40;5.90;;;11.40;99.90;;;;;;5049782;28;20041;-67
2023/05/10 04:21:01;;;;;;;7.20;5.45;;;11.40;99.90;;;;;;5049299;28;20040;-66
2023/05/10 04:23:28;;;;;;;18.13;6.32;;;11.40;99.90;;;;;;5049850;28;20048;-66
2023/05/10 04:26:01;;;;;;;14.07;6.20;;;11.40;99.90;;;;;;5054030;28;20044;-66
2023/05/10 04:28:28;;;;;;;19.20;7.07;;;11.40;99.90;;;;;;5051963;28;20057;-66
2023/05/10 04:31:04;;;;;;;17.25;7.75;;;11.40;99.90;;;;;;5051076;28;20051;-66
2023/05/10 04:33:31;;;;;;;25.60;7.50;;;11.30;99.90;;;;;;5049212;28;20419;-66
2023/05/10 04:35:58;;;;;;;14.50;7.47;;;11.30;99.90;;;;;;5049302;28;20079;-66
2023/05/10 04:38:25;;;;;;;15.43;7.22;;;11.30;99.90;;;;;;5049083;28;20044;-66
2023/05/10 04:40:52;;;;;;;15.18;7.45;;;11.30;99.90;;;;;;5048745;28;20482;-66
2023/05/10 04:43:20;;;;;;;9.77;5.88;;;11.30;99.90;;;;;;5048740;28;20530;-66
2023/05/10 04:45:46;;;;;;;11.45;7.63;;;11.20;99.90;;;;;;5048739;28;20048;-65
2023/05/10 04:48:13;;;;;;;16.27;7.13;;;11.20;99.90;;;;;;5048440;28;20040;-66
2023/05/10 04:50:40;;;;;;;12.40;6.45;;;11.20;99.90;;;;;;5040158;28;20072;-66
2023/05/10 04:53:06;;;;;;;15.80;6.93;;;11.20;99.90;;;;;;5048089;28;20044;-67
2023/05/10 04:55:33;;;;;;;17.20;7.32;;;11.20;99.90;;;;;;5049629;28;20099;-67
2023/05/10 04:58:00;;;;;;;15.60;6.90;;;11.20;99.90;;;;;;5050061;28;20124;-67
2023/05/10 05:00:27;;;;;;;20.70;6.85;;;11.10;99.90;;;;;;5051075;28;20480;-67
2023/05/10 05:02:53;;;;;;;17.60;8.63;;;11.10;99.90;;;;;;5050961;28;20500;-66
2023/05/10 05:05:20;;;;;;;11.70;7.85;;;11.10;99.90;;;;;;5050824;28;20522;-66
2023/05/10 05:07:47;;;;;;;18.70;8.82;;;11.10;99.90;;;;;;5050962;28;20141;-65
2023/05/10 05:10:14;;;;;;;15.95;8.07;;;11.10;99.90;;;;;;5047203;28;20045;-66
2023/05/10 05:12:41;;;;;;;14.98;8.23;;;11.00;99.90;;;;;;5048455;28;20055;-66
2023/05/10 05:15:09;;;;;;;16.75;8.00;;;11.00;99.90;;;;;;5048157;28;20051;-66
2023/05/10 05:17:36;;;;;;;15.80;8.57;;;11.00;99.90;;;;;;5048146;28;20051;-65
2023/05/10 05:20:03;;;;;;;19.50;7.70;;;10.90;99.90;;;;;;5042475;28;20055;-65
2023/05/10 05:22:30;;;;;;;14.95;8.65;;;11.00;99.90;;;;;;5046557;28;20049;-66
2023/05/10 05:24:58;;;;;;;15.95;7.07;;;10.90;99.90;;;;;;5048301;28;20484;-66
2023/05/10 05:27:26;;;;;;;23.48;9.18;;;10.90;99.90;;;;;;5048022;28;20132;-66
2023/05/10 05:29:56;;;;;;;17.55;8.45;;;11.00;99.90;;;;;;5048369;28;20072;-66
2023/05/10 05:32:23;;;;;;;13.68;7.90;;;11.00;99.90;;;;;;5046423;28;20049;-67
2023/05/10 05:34:50;;;;;;;19.58;8.95;;;11.10;99.90;;;;;;5047690;28;20049;-66
2023/05/10 05:37:18;;;;;;;17.95;7.80;;;11.00;99.90;;;;;;5047979;28;20069;-67
2023/05/10 05:39:45;;;;;;;21.63;8.10;;;11.10;99.90;;;;;;5047580;28;20106;-67
2023/05/10 05:42:12;;;;;;;20.55;8.27;;;11.10;99.90;;;;;;5047770;28;20093;-64
2023/05/10 05:44:39;;;;;;;17.42;7.70;;;11.10;99.90;;;;;;5047360;28;20500;-61
2023/05/10 05:47:06;;;;;;;17.23;9.25;;;11.20;99.90;;;;;;5047757;28;20095;-65
2023/05/10 05:49:32;;;;;;;15.48;8.13;;;11.20;99.90;;;;;;5046522;28;20179;-64
2023/05/10 05:52:03;;;;;;;17.40;8.45;;;11.20;99.90;;;;;;5030181;28;20087;-65
2023/05/10 05:54:30;;;;;;;15.38;8.13;;;11.10;99.90;;;;;;5046317;28;20132;-65
2023/05/10 05:56:57;;;;;;;15.93;7.07;;;11.20;99.90;;;;;;5045668;28;20080;-64
2023/05/10 05:59:27;;;;;;;17.50;8.90;;;11.20;99.90;;;;;;5043961;28;20106;-65
2023/05/10 06:01:54;;;;;;;24.48;11.02;;;11.20;99.90;;;;;;5046866;28;20055;-64
2023/05/10 06:04:21;;;;;;;18.10;8.77;;;11.20;99.90;;;;;;5015629;28;20526;-64
2023/05/10 06:06:47;;;;;;;24.27;8.43;;;11.20;99.90;;;;;;5051395;28;20484;-65
2023/05/10 06:09:14;;;;;;;23.52;8.18;;;11.20;99.90;;;;;;5037305;28;20041;-65
2023/05/10 06:11:41;;;;;;;24.88;9.13;;;11.30;99.90;;;;;;5044682;28;20049;-65
2023/05/10 06:14:08;;;;;;;17.40;6.95;;;11.20;99.90;;;;;;5048964;28;20041;-63
2023/05/10 06:16:34;;;;;;;17.08;7.68;;;11.30;99.90;;;;;;5043714;28;20068;-65
2023/05/10 06:19:02;;;;;;;21.23;8.38;;;11.40;99.90;;;;;;5051126;28;20095;-65
2023/05/10 06:21:29;;;;;;;20.00;8.05;;;11.30;99.90;;;;;;5051382;28;20443;-64
2023/05/10 06:23:56;;;;;;;17.65;6.80;;;11.40;99.90;;;;;;5049955;28;20049;-64
2023/05/10 06:26:23;;;;;;;19.13;7.45;;;11.40;99.90;;;;;;5027217;28;20055;-65
2023/05/10 06:28:50;;;;;;;15.32;6.70;;;11.50;99.90;;;;;;5051216;28;20045;-65
2023/05/10 06:31:17;;;;;;;16.08;7.45;;;11.50;99.90;;;;;;5031365;28;20067;-66
2023/05/10 06:33:44;;;;;;;21.45;7.60;;;11.50;99.90;;;;;;5050737;28;20128;-64
2023/05/10 06:36:12;;;;;;;14.75;8.55;;;11.50;99.90;;;;;;5044931;28;20088;-64
2023/05/10 06:38:39;;;;;;;15.88;7.68;;;11.60;99.90;;;;;;5036776;28;20091;-64
2023/05/10 06:41:06;;;;;;;12.05;7.53;;;11.50;99.90;;;;;;5045039;28;20468;-65
2023/05/10 06:43:33;;;;;;;22.02;9.65;;;11.50;99.90;;;;;;5050978;28;20051;-65
2023/05/10 06:45:59;;;;;;;15.13;8.25;;;11.60;99.90;;;;;;5049176;28;20128;-64
2023/05/10 06:48:26;;;;;;;13.48;7.97;;;11.70;99.90;;;;;;5050346;28;20388;-64
2023/05/10 06:50:53;;;;;;;17.30;8.18;;;11.60;99.90;;;;;;5050043;28;20072;-64
2023/05/10 06:53:20;;;;;;;16.98;8.35;;;11.60;99.90;;;;;;5048653;28;20131;-65
2023/05/10 06:55:46;;;;;;;18.83;8.23;;;11.70;99.90;;;;;;5035987;28;20045;-63
2023/05/10 06:58:14;;;;;;;12.80;7.65;;;11.80;99.90;;;;;;5031156;28;20049;-67
2023/05/10 07:00:43;;;;;;;19.83;8.35;;;11.90;99.90;;;;;;5046831;28;20772;-66
2023/05/10 07:03:10;;;;;;;13.35;6.55;;;12.00;99.90;;;;;;5040625;28;20041;-67
2023/05/10 07:05:37;;;;;;;17.77;7.65;;;12.00;99.90;;;;;;5035103;28;20458;-65
2023/05/10 07:08:04;;;;;;;15.43;7.88;;;12.00;99.90;;;;;;5044997;28;20049;-65
2023/05/10 07:10:31;;;;;;;17.23;6.22;;;12.00;99.90;;;;;;5047660;28;20085;-64
2023/05/10 07:12:57;;;;;;;14.55;6.38;;;12.00;99.90;;;;;;5048749;28;20159;-65
2023/05/10 07:15:24;;;;;;;16.30;6.30;;;12.00;99.90;;;;;;5031278;28;20132;-65
2023/05/10 07:17:51;;;;;;;15.88;5.47;;;12.10;99.90;;;;;;5029085;28;20479;-65
2023/05/10 07:20:19;;;;;;;13.55;5.45;;;12.10;99.90;;;;;;5037685;28;20148;-65
2023/05/10 07:22:45;;;;;;;13.65;5.60;;;12.20;99.90;;;;;;5048954;28;20131;-66
2023/05/10 07:25:13;;;;;;;12.23;5.10;;;12.30;99.90;;;;;;5042139;28;20046;-65
2023/05/10 07:27:40;;;;;;;14.40;5.65;;;12.30;99.90;;;;;;5044990;28;20318;-65
2023/05/10 07:30:08;;;;;;;23.10;5.72;;;12.30;99.90;;;;;;5050316;28;20041;-65
2023/05/10 07:32:34;;;;;;;20.13;6.40;;;12.40;99.90;;;;;;5049901;28;20099;-65
2023/05/10 07:35:01;;;;;;;13.18;5.47;;;12.40;99.90;;;;;;5049744;28;20056;-65
2023/05/10 07:37:28;;;;;;;15.75;4.60;;;12.40;99.90;;;;;;5049882;28;20183;-64
2023/05/10 07:39:55;;;;;;;14.00;5.10;;;12.50;99.90;;;;;;5049818;28;20044;-65
2023/05/10 07:42:22;;;;;;;16.98;4.38;;;12.50;99.90;;;;;;5049567;28;20135;-64
2023/05/10 07:44:49;;;;;;;14.95;4.10;;;12.50;99.90;;;;;;5048915;28;20607;-65
2023/05/10 07:47:16;;;;;;;14.88;4.65;;;12.60;99.90;;;;;;5049434;28;20049;-65
2023/05/10 07:49:43;;;;;;;14.38;4.65;;;12.70;99.90;;;;;;5049462;28;20041;-64
2023/05/10 07:52:10;;;;;;;10.07;4.05;;;12.80;99.90;;;;;;5048672;28;20132;-65
2023/05/10 07:54:37;;;;;;;21.17;4.80;;;12.90;99.90;;;;;;5049478;28;20209;-65
2023/05/10 07:57:04;;;;;;;16.52;5.50;;;13.00;99.90;;;;;;5049791;28;20067;-65
2023/05/10 07:59:32;;;;;;;14.43;4.75;;;13.10;99.90;;;;;;5049305;28;20084;-65
2023/05/10 08:01:58;;;;;;;23.30;5.60;;;13.10;99.90;;;;;;5049614;28;20257;-66
2023/05/10 08:04:25;;;;;;;12.13;4.45;;;13.20;99.90;;;;;;5048890;28;20053;-64
2023/05/10 08:06:52;;;;;;;18.67;4.93;;;13.20;99.90;;;;;;5049664;28;20049;-65
2023/05/10 08:09:23;;;;;;;14.25;4.18;;;13.20;99.90;;;;;;5048997;28;20055;-65
2023/05/10 08:11:50;;;;;;;12.38;4.78;;;13.20;99.90;;;;;;5049430;28;20053;-65
2023/05/10 08:14:17;;;;;;;20.33;4.50;;;13.30;99.90;;;;;;5040315;28;20037;-65
2023/05/10 08:16:44;;;;;;;26.80;5.85;;;13.40;99.90;;;;;;5045601;28;20132;-64
2023/05/10 08:19:10;;;;;;;11.82;4.45;;;13.50;99.90;;;;;;5031397;28;20509;-64
2023/05/10 08:21:37;;;;;;;11.88;4.15;;;13.60;99.90;;;;;;5031158;28;20053;-64
2023/05/10 08:24:05;;;;;;;9.20;4.38;;;13.60;99.90;;;;;;5048834;28;20059;-64
2023/05/10 08:26:32;;;;;;;12.82;4.00;;;13.70;99.90;;;;;;5030471;28;20078;-64
2023/05/10 08:28:59;;;;;;;16.67;5.07;;;13.70;99.90;;;;;;5047758;28;20492;-65
2023/05/10 08:31:25;;;;;;;19.55;4.82;;;13.80;99.90;;;;;;5048997;28;20098;-64
2023/05/10 08:33:52;;;;;;;12.80;4.25;;;13.90;99.90;;;;;;5036778;28;20048;-66
2023/05/10 08:36:21;;;;;;;11.35;3.90;;;13.90;99.90;;;;;;5049402;28;20466;-65
2023/05/10 08:38:50;;;;;;;18.20;3.58;;;14.00;99.90;;;;;;5049156;28;20048;-66
2023/05/10 08:41:20;;;;;;;14.65;3.88;;;14.00;99.90;;;;;;5047920;28;20048;-65
2023/05/10 08:43:47;;;;;;;10.50;4.25;;;14.10;99.90;;;;;;5046708;28;20623;-65
2023/05/10 08:46:17;;;;;;;14.00;5.03;;;14.20;99.90;;;;;;5041409;28;20067;-64
2023/05/10 08:48:47;;;;;;;17.17;4.28;;;14.20;99.90;;;;;;5041949;28;20052;-65
2023/05/10 08:51:16;;;;;;;11.23;3.97;;;14.20;99.90;;;;;;5048764;28;20510;-65
2023/05/10 08:53:43;;;;;;;19.73;3.80;;;14.30;99.90;;;;;;5047648;28;20132;-65
2023/05/10 08:56:10;;;;;;;10.30;3.58;;;14.40;99.90;;;;;;5047220;28;20045;-65
2023/05/10 08:58:37;;;;;;;13.65;3.92;;;14.50;99.90;;;;;;5047593;28;20128;-66
2023/05/10 09:01:05;;;;;;;16.45;4.15;;;14.60;99.90;;;;;;5048657;28;20080;-65
2023/05/10 09:03:32;;;;;;;15.82;3.75;;;14.70;99.90;;;;;;5048811;28;20060;-65
2023/05/10 09:05:59;;;;;;;13.95;4.78;;;14.70;99.90;;;;;;5048349;28;20053;-65
2023/05/10 09:08:26;;;;;;;14.23;4.25;;;14.80;99.90;;;;;;5048648;28;20523;-65
2023/05/10 09:10:54;;;;;;;22.13;4.72;;;14.90;99.90;;;;;;5048581;28;20041;-65
2023/05/10 09:13:21;;;;;;;11.85;4.68;;;15.00;99.90;;;;;;5044871;28;20053;-65
2023/05/10 09:15:48;;;;;;;21.15;4.60;;;15.10;99.90;;;;;;5033973;28;20601;-66
2023/05/10 09:18:15;;;;;;;18.30;4.30;;;15.10;99.90;;;;;;5048526;28;20053;-65
2023/05/10 09:20:42;;;;;;;14.70;4.57;;;15.10;99.90;;;;;;5048555;28;20041;-65
2023/05/10 09:23:08;;;;;;;10.77;4.32;;;15.20;99.90;;;;;;5047378;28;20068;-64
2023/05/10 09:25:36;;;;;;;14.13;4.03;;;15.20;99.90;;;;;;5048709;28;20094;-64
2023/05/10 09:28:05;;;;;;;8.15;3.60;;;15.20;99.90;;;;;;5048785;28;20106;-65
2023/05/10 09:30:32;;;;;;;16.50;3.92;;;15.20;99.90;;;;;;5014042;28;20136;-64
2023/05/10 09:32:59;;;;;;;11.15;4.57;;;15.40;99.90;;;;;;5048029;28;20044;-65
2023/05/10 09:35:28;;;;;;;8.90;4.18;;;15.20;99.90;;;;;;5048004;28;20202;-65
2023/05/10 09:38:00;;;;;;;11.55;5.10;;;15.20;99.90;;;;;;5043324;28;20127;-66
2023/05/10 09:40:28;;;;;;;10.43;4.32;;;15.30;99.90;;;;;;5040742;28;20275;-66
2023/05/10 09:43:01;;;;;;;11.32;3.88;;;15.50;99.90;;;;;;5048053;28;20132;-65
2023/05/10 09:45:31;;;;;;;12.75;4.00;;;15.60;99.90;;;;;;5048141;28;20076;-66
2023/05/10 09:47:58;;;;;;;13.13;4.05;;;15.60;99.90;;;;;;5047460;28;20128;-66
2023/05/10 09:50:26;;;;;;;10.65;3.45;;;15.80;99.90;;;;;;5048288;28;20045;-65
2023/05/10 09:52:59;;;;;;;12.82;3.50;;;16.00;99.90;;;;;;5046210;28;20586;-65
2023/05/10 09:55:40;;;;;;;7.50;3.20;;;16.30;99.90;;;;;;5048136;28;20095;-67
2023/05/10 09:58:10;;;;;;;10.45;3.15;;;16.40;99.90;;;;;;5047634;28;20055;-65
2023/05/10 10:00:41;;;;;;;10.63;3.30;;;16.60;99.90;;;;;;5048047;28;20144;-66
2023/05/10 10:03:15;;;;;;;13.40;3.92;;;16.70;99.90;;;;;;5047431;28;20567;-65
2023/05/10 10:05:43;;;;;;;9.80;3.40;;;16.80;99.90;;;;;;5047772;28;20041;-66
2023/05/10 10:08:10;;;;;;;13.70;5.13;;;17.10;99.90;;;;;;5047186;28;20119;-66
2023/05/10 10:10:38;;;;;;;11.15;3.60;;;17.00;99.90;;;;;;5048454;28;20049;-66
2023/05/10 10:13:05;;;;;;;8.93;3.10;;;17.10;99.90;;;;;;5030070;28;20339;-66
2023/05/10 10:15:33;;;;;;;9.48;3.47;;;17.00;99.90;;;;;;5047771;28;20045;-66
2023/05/10 10:18:00;;;;;;;11.70;4.07;;;16.80;99.90;;;;;;5047776;28;20074;-66
2023/05/10 10:20:27;;;;;;;11.18;3.67;;;17.10;99.90;;;;;;5046533;28;20048;-67
2023/05/10 10:22:54;;;;;;;8.60;4.13;;;17.40;99.90;;;;;;5043518;28;20049;-66
2023/05/10 10:25:24;;;;;;;11.15;3.22;;;17.70;99.90;;;;;;5043517;28;20079;-66
2023/05/10 10:27:51;;;;;;;12.30;3.78;;;17.90;99.90;;;;;;5017958;28;20152;-65
2023/05/10 10:30:39;;;;;;;9.77;3.47;;;17.60;99.90;;;;;;5047526;28;20073;-66
2023/05/10 10:33:15;;;;;;;8.15;3.35;;;18.00;99.90;;;;;;5018609;28;20120;-66
2023/05/10 10:35:54;;;;;;;8.52;3.63;;;18.20;99.90;;;;;;5047180;28;20067;-66
2023/05/10 10:38:20;;;;;;;11.05;3.40;;;18.20;99.90;;;;;;5046171;28;20049;-67
2023/05/10 10:40:47;;;;;;;6.95;3.42;;;18.00;99.90;;;;;;5037370;28;20080;-66
2023/05/10 10:43:27;;;;;;;8.52;3.60;;;17.70;99.90;;;;;;5028824;28;20045;-66
2023/05/10 10:46:13;;;;;;;10.50;4.07;;;17.40;99.90;;;;;;5046313;28;20107;-66
2023/05/10 10:48:51;;;;;;;16.40;4.30;;;17.40;99.90;;;;;;5036311;28;20079;-66
2023/05/10 10:51:18;;;;;;;9.35;3.50;;;17.50;99.90;;;;;;5050926;28;20132;-67
2023/05/10 10:53:44;;;;;;;8.93;3.88;;;17.30;99.90;;;;;;5049980;28;20516;-66
2023/05/10 10:56:13;;;;;;;8.40;3.55;;;17.20;99.90;;;;;;5033445;28;20045;-66
2023/05/10 10:58:40;;;;;;;6.60;3.50;;;17.20;99.90;;;;;;5051288;28;20051;-66
2023/05/10 11:01:14;;;;;;;11.68;3.55;;;16.90;99.90;;;;;;5049785;28;20555;-66
2023/05/10 11:03:41;;;;;;;;;;;16.90;99.90;;;;;;5033749;28;20064;-66
2023/05/10 11:06:08;;;;;;;9.35;3.22;;;17.00;99.90;;;;;;5050879;28;19920;-66
2023/05/10 11:08:43;;;;;;;10.00;2.97;;;17.30;99.90;;;;;;5049875;28;20044;-66
2023/05/10 11:11:09;;;;;;;13.77;4.00;;;17.30;99.90;;;;;;5049571;28;20060;-66
2023/05/10 11:13:40;;;;;;;11.07;4.13;;;17.40;99.90;;;;;;5033304;28;20049;-66
2023/05/10 11:16:19;;;;;;;6.47;3.00;;;17.40;99.90;;;;;;5046981;28;20064;-66
2023/05/10 11:19:01;;;;;;;9.18;2.85;;;17.50;99.90;;;;;;5050965;28;20136;-65
2023/05/10 11:21:32;;;;;;;10.13;3.47;;;17.50;99.90;;;;;;5048566;28;20053;-64
2023/05/10 11:24:00;;;;;;;13.50;3.13;;;17.60;99.90;;;;;;5050763;28;20053;-65
2023/05/10 11:26:34;;;;;;;7.95;3.10;;;17.70;99.90;;;;;;5039784;28;20319;-65
2023/05/10 11:29:01;;;;;;;8.63;3.00;;;17.60;99.90;;;;;;5049416;28;20137;-65
2023/05/10 11:31:28;;;;;;;11.38;3.78;;;17.50;99.90;;;;;;5049353;28;20095;-66
2023/05/10 11:33:57;;;;;;;8.70;3.53;;;17.50;99.90;;;;;;5049060;28;20427;-66
2023/05/10 11:36:29;;;;;;;11.63;3.30;;;17.60;99.90;;;;;;4823695;28;10000579;-65
2023/05/10 11:38:56;;;;;;;7.78;3.38;;;17.70;99.90;;;;;;5019529;28;20252;-65
2023/05/10 11:41:23;;;;;;;6.07;2.45;;;17.80;99.90;;;;;;5047580;28;20102;-66
2023/05/10 11:43:51;;;;;;;5.30;2.58;;;17.80;99.90;;;;;;5048049;28;20518;-66
2023/05/10 11:46:22;;;;;;;4.05;2.25;;;17.80;99.90;;;;;;5046536;28;20055;-66
2023/05/10 11:48:50;;;;;;;6.15;2.50;;;17.90;99.90;;;;;;5044418;28;20102;-66
2023/05/10 11:51:21;;;;;;;9.05;2.95;;;18.00;99.90;;;;;;5046627;28;20549;-66
2023/05/10 11:53:50;;;;;;;5.68;1.90;;;18.10;99.90;;;;;;5026384;28;20073;-66
2023/05/10 11:56:16;;;;;;;13.02;2.70;;;18.30;99.90;;;;;;5047388;28;20518;-67
2023/05/10 11:58:43;;;;;;;8.80;2.55;;;18.40;99.90;;;;;;5047681;28;20490;-66
2023/05/10 12:01:10;;;;;;;5.53;1.42;;;18.30;99.90;;;;;;5046535;28;20264;-66
2023/05/10 12:03:37;;;;;;;6.82;2.00;;;18.40;99.90;;;;;;5046021;28;20581;-66
2023/05/10 12:06:04;;;;;;;6.40;1.90;;;18.70;99.90;;;;;;5046130;28;20049;-66
2023/05/10 12:08:31;;;;;;;8.40;2.13;;;19.10;99.90;;;;;;5046895;28;20053;-66
2023/05/10 12:11:08;;;;;;;4.70;1.33;;;19.30;99.90;;;;;;5047188;28;20063;-67
2023/05/10 12:13:42;;;;;;;6.82;1.65;;;19.20;98.10;;;;;;5039826;28;20495;-66
2023/05/10 12:16:27;;;;;;;5.93;1.80;;;19.00;99.40;;;;;;5034715;28;20048;-66
2023/05/10 12:18:56;;;;;;;7.78;1.85;;;19.00;99.90;;;;;;5040930;28;20141;-66
2023/05/10 12:21:23;;;;;;;7.25;1.50;;;18.90;99.90;;;;;;5045746;28;20052;-66
2023/05/10 12:23:51;;;;;;;7.05;2.00;;;18.90;99.90;;;;;;5046940;28;20132;-66
2023/05/10 12:26:18;;;;;;;6.35;1.80;;;18.80;99.90;;;;;;5025292;28;20131;-67
2023/05/10 12:28:44;;;;;;;7.97;2.00;;;18.70;99.90;;;;;;5046936;28;20128;-66
2023/05/10 12:31:11;;;;;;;6.47;2.00;;;18.30;99.90;;;;;;5046602;28;20084;-67
2023/05/10 12:33:45;;;;;;;12.35;2.38;;;18.30;99.90;;;;;;5048588;28;20140;-66
2023/05/10 12:36:12;;;;;;;;;;;18.30;99.90;;;;;;5047599;28;20094;-66
2023/05/10 12:38:43;;;;;;;8.88;2.20;;;18.40;99.90;;;;;;5047074;28;19921;-67
2023/05/10 12:41:14;;;;;;;5.65;1.95;;;18.40;99.90;;;;;;5031910;28;20049;-67
2023/05/10 12:43:41;;;;;;;5.90;1.50;;;18.50;99.90;;;;;;5048486;28;20069;-66
2023/05/10 12:46:08;;;;;;;7.57;1.85;;;18.50;99.90;;;;;;5037321;28;20141;-67
2023/05/10 12:48:36;;;;;;;14.65;2.78;;;18.40;99.90;;;;;;5045822;28;20127;-68